Time;durP1;ratioP1;P1;durP2;ratioP2;P2;SDS_P1;SDS_P2;PMS_P1;PMS_P2;Temp;Humidity;BMP_temperature;BMP_pressure;BME280_temperature;BME280_humidity;BME280_pressure;Samples;Min_cycle;Max_cycle;Signal;HPM_P1;HPM_P2
2022/09/12 00:03:15;;;;;;;3.05;2.75;;;22.00;65.30;;;;;;10108966;29;20035;-56
2022/09/12 00:08:16;;;;;;;3.50;3.17;;;22.00;65.30;;;;;;10109386;29;20396;-56
2022/09/12 00:13:17;;;;;;;2.90;2.70;;;21.90;65.20;;;;;;10126084;29;20116;-56
2022/09/12 00:18:17;;;;;;;2.95;2.70;;;21.90;65.20;;;;;;10125786;29;20100;-55
2022/09/12 00:23:18;;;;;;;3.58;3.10;;;21.90;65.20;;;;;;10125510;29;20119;-55
2022/09/12 00:28:19;;;;;;;3.35;2.92;;;21.90;65.10;;;;;;10108797;29;20468;-55
2022/09/12 00:33:20;;;;;;;3.42;3.13;;;21.90;65.10;;;;;;10125393;29;20060;-56
2022/09/12 00:38:20;;;;;;;3.38;3.08;;;21.80;65.00;;;;;;10125107;29;20049;-54
2022/09/12 00:43:48;;;;;;;3.42;2.78;;;21.90;65.10;;;;;;10125043;29;20041;-55
2022/09/12 00:49:19;;;;;;;4.03;3.20;;;21.90;64.90;;;;;;10109172;29;20035;-55
2022/09/12 00:54:27;;;;;;;4.18;3.20;;;21.80;64.90;;;;;;10110903;29;20377;-56
2022/09/12 00:59:42;;;;;;;3.83;3.53;;;21.80;64.80;;;;;;10113960;29;20200;-56
2022/09/12 01:04:44;;;;;;;4.18;2.88;;;21.80;64.70;;;;;;10116670;29;20040;-56
2022/09/12 01:09:45;;;;;;;4.10;3.70;;;21.80;64.70;;;;;;10132358;29;20155;-55
2022/09/12 01:14:46;;;;;;;2.97;2.67;;;21.80;64.70;;;;;;10129997;29;20040;-54
2022/09/12 01:20:42;;;;;;;3.47;3.10;;;21.80;64.60;;;;;;10129936;29;20035;-54
2022/09/12 01:26:01;;;;;;;3.92;3.00;;;21.80;64.60;;;;;;10131884;29;20036;-55
2022/09/12 01:31:34;;;;;;;3.47;2.90;;;21.80;64.50;;;;;;10116950;29;20040;-55
2022/09/12 01:37:04;;;;;;;3.80;3.03;;;21.80;64.40;;;;;;10116049;29;20044;-55
2022/09/12 01:42:29;;;;;;;3.42;3.08;;;21.80;64.40;;;;;;10131408;29;20053;-55
2022/09/12 01:47:55;;;;;;;3.83;2.75;;;21.80;64.40;;;;;;10131744;29;20095;-55
2022/09/12 01:53:13;;;;;;;3.42;3.13;;;21.70;64.20;;;;;;10131154;29;20033;-54
2022/09/12 01:58:43;;;;;;;3.63;3.10;;;21.70;64.10;;;;;;10085132;29;20040;-55
2022/09/12 02:03:52;;;;;;;3.55;3.25;;;21.70;64.10;;;;;;10091792;29;20044;-55
2022/09/12 02:09:08;;;;;;;3.10;2.80;;;21.70;64.00;;;;;;10091740;29;20501;-60
2022/09/12 02:14:20;;;;;;;3.15;2.85;;;21.70;64.00;;;;;;10074937;29;20049;-55
2022/09/12 02:19:28;;;;;;;3.33;3.00;;;21.70;63.80;;;;;;10075074;29;20065;-56
2022/09/12 02:24:52;;;;;;;3.10;2.80;;;21.70;63.80;;;;;;10075093;29;20048;-54
2022/09/12 02:29:53;;;;;;;3.15;2.60;;;21.70;63.80;;;;;;10091350;29;20037;-56
2022/09/12 02:35:47;;;;;;;3.60;3.03;;;21.70;63.80;;;;;;10073746;29;20041;-55
2022/09/12 02:40:48;;;;;;;2.88;2.60;;;21.70;63.70;;;;;;10076524;29;20025;-56
2022/09/12 02:45:49;;;;;;;4.13;2.85;;;21.70;63.70;;;;;;10073585;29;20041;-54
2022/09/12 02:50:50;;;;;;;2.80;2.50;;;21.70;63.70;;;;;;10089068;29;20068;-56
2022/09/12 02:55:51;;;;;;;3.70;2.78;;;21.70;63.60;;;;;;10084512;29;20135;-55
2022/09/12 03:01:29;;;;;;;3.00;2.55;;;21.70;63.60;;;;;;10127208;29;20111;-55
2022/09/12 03:07:30;;;;;;;3.30;3.00;;;21.60;63.50;;;;;;10112944;29;20118;-55
2022/09/12 03:12:46;;;;;;;3.08;2.72;;;21.70;63.70;;;;;;10078315;29;20055;-55
2022/09/12 03:17:57;;;;;;;4.75;2.80;;;21.60;63.40;;;;;;10128196;29;20089;-55
2022/09/12 03:23:38;;;;;;;3.47;3.15;;;21.60;63.30;;;;;;10110320;29;20076;-54
2022/09/12 03:28:40;;;;;;;3.38;2.65;;;21.60;63.20;;;;;;10094278;29;20036;-55
2022/09/12 03:33:41;;;;;;;3.33;2.72;;;21.60;63.20;;;;;;10110856;29;20838;-56
2022/09/12 03:38:42;;;;;;;3.45;2.70;;;21.60;63.20;;;;;;10127387;29;20067;-55
2022/09/12 03:43:43;;;;;;;3.42;2.63;;;21.60;63.20;;;;;;10110337;29;20043;-55
2022/09/12 03:48:43;;;;;;;2.90;2.50;;;21.60;63.20;;;;;;10126940;29;20035;-54
2022/09/12 03:53:44;;;;;;;2.92;2.63;;;21.60;63.10;;;;;;10126867;29;20051;-56
2022/09/12 03:58:45;;;;;;;4.28;3.17;;;21.60;63.10;;;;;;10075635;29;20112;-54
2022/09/12 04:03:49;;;;;;;3.20;2.75;;;21.60;63.00;;;;;;10087620;29;20485;-54
2022/09/12 04:08:52;;;;;;;3.28;2.97;;;21.60;62.90;;;;;;10071215;29;20089;-57
2022/09/12 04:13:53;;;;;;;2.15;1.88;;;21.50;62.90;;;;;;10087062;29;20049;-55
2022/09/12 04:18:54;;;;;;;3.65;3.30;;;21.60;62.90;;;;;;10070781;29;20060;-55
2022/09/12 04:23:54;;;;;;;3.13;2.80;;;21.50;62.80;;;;;;10087453;29;20091;-56
2022/09/12 04:28:56;;;;;;;3.20;2.67;;;21.50;62.90;;;;;;10087206;29;20120;-55
2022/09/12 04:33:59;;;;;;;3.65;2.53;;;21.50;62.80;;;;;;10087161;29;20052;-56
2022/09/12 04:39:02;;;;;;;2.55;2.30;;;21.50;62.80;;;;;;10086687;29;20481;-56
2022/09/12 04:44:11;;;;;;;3.22;2.75;;;21.50;62.90;;;;;;10085740;29;20063;-56
2022/09/12 04:49:13;;;;;;;;;;;21.50;62.80;;;;;;10070326;29;20392;-55
2022/09/12 04:54:17;;;;;;;6.45;2.70;;;21.50;62.80;;;;;;10082712;29;19952;-56
2022/09/12 04:59:20;;;;;;;3.55;2.78;;;21.50;63.00;;;;;;10067940;29;20049;-56
2022/09/12 05:04:21;;;;;;;13.55;4.68;;;21.50;62.70;;;;;;10083444;29;20037;-55
2022/09/12 05:09:22;;;;;;;10.30;4.45;;;21.50;63.30;;;;;;10085485;29;20025;-52
2022/09/12 05:14:23;;;;;;;6.93;5.45;;;21.60;63.60;;;;;;10066586;29;20033;-55
2022/09/12 05:19:23;;;;;;;9.70;4.45;;;21.70;63.30;;;;;;10085284;29;20065;-54
2022/09/12 05:24:24;;;;;;;7.60;3.92;;;21.80;63.90;;;;;;10086276;29;20489;-54
2022/09/12 05:29:25;;;;;;;7.63;4.85;;;21.80;63.80;;;;;;10086071;29;20393;-58
2022/09/12 05:34:26;;;;;;;20.55;5.05;;;21.80;65.10;;;;;;10086095;29;20055;-56
2022/09/12 05:39:27;;;;;;;16.35;6.97;;;21.70;64.80;;;;;;10069502;29;20030;-55
2022/09/12 05:44:28;;;;;;;27.02;7.72;;;21.70;64.90;;;;;;10091001;29;20041;-56
2022/09/12 05:49:29;;;;;;;26.13;9.88;;;21.70;64.80;;;;;;10100740;29;20068;-56
2022/09/12 05:54:30;;;;;;;31.70;7.30;;;21.60;65.90;;;;;;10092466;29;20041;-53
2022/09/12 05:59:30;;;;;;;27.50;8.30;;;21.50;64.60;;;;;;10113771;29;20404;-55
2022/09/12 06:04:31;;;;;;;33.60;8.02;;;21.50;65.00;;;;;;10128024;29;20033;-55
2022/09/12 06:09:32;;;;;;;26.52;8.20;;;21.60;64.80;;;;;;10138976;29;20563;-54
2022/09/12 06:14:32;;;;;;;16.63;7.00;;;21.60;64.70;;;;;;10128698;29;20119;-55
2022/09/12 06:19:33;;;;;;;16.42;7.10;;;21.50;64.50;;;;;;10124375;29;20127;-54
2022/09/12 06:24:34;;;;;;;13.90;5.78;;;21.50;64.50;;;;;;10127127;29;20475;-55
2022/09/12 06:29:34;;;;;;;11.82;5.15;;;21.50;64.50;;;;;;10108246;29;20082;-56
2022/09/12 06:34:35;;;;;;;8.23;5.32;;;21.50;64.50;;;;;;10124289;29;20045;-56
2022/09/12 06:39:37;;;;;;;15.02;6.32;;;21.50;64.50;;;;;;10109251;29;20410;-56
2022/09/12 06:44:38;;;;;;;12.05;5.82;;;21.50;64.30;;;;;;10110811;29;20096;-55
2022/09/12 06:49:38;;;;;;;16.42;6.97;;;21.50;64.40;;;;;;10109610;29;20068;-55
2022/09/12 06:54:39;;;;;;;23.73;7.07;;;21.40;64.60;;;;;;10125794;29;20067;-56
2022/09/12 06:59:40;;;;;;;15.43;6.03;;;21.40;64.80;;;;;;10126135;29;20087;-56
2022/09/12 07:04:40;;;;;;;15.77;5.97;;;21.40;64.80;;;;;;10126768;29;20743;-56
2022/09/12 07:09:41;;;;;;;18.42;6.00;;;21.40;65.00;;;;;;10123472;29;20180;-56
2022/09/12 07:14:42;;;;;;;21.77;6.97;;;21.40;64.90;;;;;;10125783;29;20552;-57
2022/09/12 07:19:43;;;;;;;27.25;7.93;;;21.40;65.00;;;;;;10108419;29;20060;-54
2022/09/12 07:24:44;;;;;;;12.18;6.28;;;21.40;65.00;;;;;;10126483;29;20063;-54
2022/09/12 07:29:46;;;;;;;13.93;5.40;;;21.40;65.10;;;;;;10110197;29;20143;-54
2022/09/12 07:34:46;;;;;;;8.43;5.10;;;21.40;65.10;;;;;;10126323;29;20051;-55
2022/09/12 07:39:47;;;;;;;9.77;6.03;;;21.40;65.20;;;;;;10126523;29;20079;-54
2022/09/12 07:44:49;;;;;;;8.77;5.63;;;21.40;65.20;;;;;;10127068;29;20037;-54
2022/09/12 07:49:51;;;;;;;8.23;5.22;;;21.40;65.10;;;;;;10126638;29;20032;-56
2022/09/12 07:54:52;;;;;;;8.98;5.57;;;21.30;65.10;;;;;;10126316;29;20062;-55
2022/09/12 07:59:53;;;;;;;16.20;7.88;;;21.40;65.20;;;;;;10109550;29;20033;-55
2022/09/12 08:04:53;;;;;;;11.50;6.75;;;21.40;65.00;;;;;;10124688;29;20556;-55
2022/09/12 08:09:54;;;;;;;14.32;9.07;;;21.40;65.00;;;;;;10126088;29;20135;-56
2022/09/12 08:14:55;;;;;;;13.75;9.85;;;21.30;64.90;;;;;;10126067;29;20175;-54
2022/09/12 08:19:55;;;;;;;11.02;8.35;;;21.40;65.10;;;;;;10125133;29;20136;-54
2022/09/12 08:24:56;;;;;;;11.55;8.98;;;21.40;65.00;;;;;;10125324;29;20041;-52
2022/09/12 08:29:57;;;;;;;13.30;8.75;;;21.40;65.10;;;;;;10124872;29;20304;-53
2022/09/12 08:34:58;;;;;;;12.68;8.80;;;21.30;65.20;;;;;;10107023;29;20476;-54
2022/09/12 08:39:58;;;;;;;11.55;8.75;;;21.40;65.50;;;;;;10124533;29;20115;-53
2022/09/12 08:45:32;;;;;;;13.10;9.82;;;21.40;65.40;;;;;;10123686;29;20115;-55
2022/09/12 08:50:32;;;;;;;14.43;9.23;;;21.40;65.40;;;;;;10102714;29;20124;-55
2022/09/12 08:55:42;;;;;;;12.32;9.35;;;21.40;65.50;;;;;;10105832;29;20041;-55
2022/09/12 09:01:06;;;;;;;13.82;9.80;;;21.40;65.60;;;;;;10107050;29;20029;-54
2022/09/12 09:06:25;;;;;;;14.00;9.85;;;21.50;65.70;;;;;;10124982;29;20037;-54
2022/09/12 09:11:59;;;;;;;15.18;10.35;;;21.50;65.60;;;;;;10108142;29;20400;-54
2022/09/12 09:17:00;;;;;;;18.13;9.68;;;21.50;65.90;;;;;;10125856;29;20512;-54
2022/09/12 09:22:09;;;;;;;14.73;9.60;;;21.60;66.20;;;;;;10138597;29;20514;-56
2022/09/12 09:27:30;;;;;;;12.82;8.15;;;21.60;66.00;;;;;;10115309;29;20041;-54
2022/09/12 09:32:39;;;;;;;15.57;9.27;;;21.60;66.00;;;;;;10115644;29;20372;-55
2022/09/12 09:38:07;;;;;;;17.90;8.25;;;21.60;66.30;;;;;;10114233;29;20488;-53
2022/09/12 09:43:26;;;;;;;17.65;8.18;;;21.60;66.10;;;;;;10117450;29;20024;-53
2022/09/12 09:48:36;;;;;;;16.20;7.93;;;21.70;66.10;;;;;;10115046;29;20531;-54
2022/09/12 09:53:55;;;;;;;17.85;8.30;;;21.70;66.10;;;;;;10130949;29;20060;-54
2022/09/12 09:58:55;;;;;;;12.20;8.10;;;21.70;66.10;;;;;;10127811;29;20055;-54
2022/09/12 10:03:57;;;;;;;11.27;7.75;;;21.70;66.20;;;;;;10127291;29;20120;-53
2022/09/12 10:09:29;;;;;;;12.30;7.50;;;21.70;66.10;;;;;;10127784;29;20044;-53
2022/09/12 10:14:39;;;;;;;11.60;6.25;;;21.70;66.10;;;;;;10127970;29;20040;-54
2022/09/12 10:19:40;;;;;;;12.48;7.50;;;21.70;66.10;;;;;;10123623;29;20048;-54
2022/09/12 10:24:49;;;;;;;9.43;7.20;;;21.80;66.10;;;;;;10128185;29;20557;-54
2022/09/12 10:29:53;;;;;;;;;;;21.80;66.00;;;;;;10127875;29;20088;-56
2022/09/12 10:35:07;;;;;;;10.70;7.03;;;21.80;66.00;;;;;;10110749;29;20023;-55
2022/09/12 10:40:37;;;;;;;10.85;6.82;;;21.80;66.10;;;;;;10127017;29;20035;-53
2022/09/12 10:45:38;;;;;;;;;;;21.80;66.00;;;;;;10111255;29;20036;-53
2022/09/12 10:50:41;;;;;;;7.93;5.40;;;21.80;65.90;;;;;;10126601;29;19915;-55
2022/09/12 10:56:15;;;;;;;7.68;6.25;;;21.80;66.10;;;;;;10125937;29;20036;-54
2022/09/12 11:01:30;;;;;;;16.90;6.32;;;21.90;66.00;;;;;;10125945;29;20040;-53
2022/09/12 11:06:56;;;;;;;9.07;6.10;;;21.90;65.90;;;;;;10125895;29;20048;-53
2022/09/12 11:12:25;;;;;;;5.90;4.85;;;21.90;66.00;;;;;;10126335;29;20745;-54
2022/09/12 11:17:54;;;;;;;7.43;5.00;;;21.90;65.90;;;;;;10116921;29;20099;-55
2022/09/12 11:23:25;;;;;;;7.97;5.10;;;21.90;65.90;;;;;;10128330;29;20088;-53
2022/09/12 11:28:46;;;;;;;5.88;5.28;;;21.90;65.80;;;;;;10125334;29;20123;-53
2022/09/12 11:33:51;;;;;;;6.30;4.82;;;21.90;65.80;;;;;;10107902;29;20052;-55
2022/09/12 11:39:42;;;;;;;5.75;4.75;;;22.00;65.90;;;;;;10108509;29;20131;-54
2022/09/12 11:44:50;;;;;;;5.88;5.07;;;22.00;65.70;;;;;;10085219;29;20056;-55
2022/09/12 11:49:53;;;;;;;5.85;5.18;;;22.00;65.70;;;;;;10108610;29;20036;-54
2022/09/12 11:55:02;;;;;;;7.15;5.50;;;22.00;65.60;;;;;;10124678;29;20143;-55
2022/09/12 12:00:07;;;;;;;5.45;4.63;;;22.00;66.20;;;;;;10124431;29;20029;-55
2022/09/12 12:05:41;;;;;;;6.53;4.63;;;22.00;66.10;;;;;;10123870;29;20037;-55
2022/09/12 12:10:49;;;;;;;6.07;5.05;;;22.00;65.40;;;;;;10123830;29;20111;-54
2022/09/12 12:16:14;;;;;;;6.77;5.70;;;22.00;65.50;;;;;;10106588;29;20500;-54
2022/09/12 12:21:51;;;;;;;11.82;5.05;;;22.00;65.40;;;;;;10124027;29;20029;-54
2022/09/12 12:27:00;;;;;;;13.13;4.80;;;22.10;65.60;;;;;;10118125;29;20036;-55
2022/09/12 12:32:00;;;;;;;12.13;5.13;;;22.10;65.70;;;;;;10124535;29;20045;-55
2022/09/12 12:37:20;;;;;;;11.60;4.75;;;22.10;65.40;;;;;;10124614;29;20049;-51
2022/09/12 12:42:32;;;;;;;5.78;4.85;;;22.10;65.00;;;;;;10124558;29;20041;-52
2022/09/12 12:47:43;;;;;;;6.05;4.70;;;22.10;64.70;;;;;;10123114;29;20480;-53
2022/09/12 12:53:23;;;;;;;8.15;4.28;;;22.00;64.50;;;;;;10122114;29;20053;-53
2022/09/12 12:58:35;;;;;;;9.35;4.72;;;22.00;64.10;;;;;;10114429;29;20738;-53
2022/09/12 13:03:37;;;;;;;6.47;4.63;;;22.10;63.90;;;;;;10115090;29;20072;-52
2022/09/12 13:08:45;;;;;;;7.05;4.45;;;22.00;63.50;;;;;;10130051;29;20136;-52
2022/09/12 13:14:26;;;;;;;6.05;4.20;;;22.00;63.60;;;;;;10131070;29;20506;-53
2022/09/12 13:19:33;;;;;;;5.55;3.88;;;22.00;63.50;;;;;;10128527;29;20033;-52
2022/09/12 13:24:47;;;;;;;4.65;4.18;;;22.00;63.60;;;;;;10114111;29;20075;-52
2022/09/12 13:29:49;;;;;;;7.78;5.05;;;22.00;63.50;;;;;;10111288;29;20064;-52
2022/09/12 13:35:16;;;;;;;5.18;4.55;;;22.00;63.20;;;;;;10130232;29;20041;-52
2022/09/12 13:40:31;;;;;;;4.55;3.42;;;22.00;63.20;;;;;;10113761;29;20040;-51
2022/09/12 13:45:38;;;;;;;6.97;4.10;;;22.00;63.20;;;;;;10112925;29;20060;-52
2022/09/12 13:50:50;;;;;;;4.43;3.65;;;22.00;63.30;;;;;;10112626;29;20131;-53
2022/09/12 13:55:57;;;;;;;4.80;4.25;;;22.00;63.20;;;;;;10115509;29;20377;-53
2022/09/12 14:01:14;;;;;;;5.80;3.67;;;22.00;63.40;;;;;;10129606;29;20087;-52
2022/09/12 14:06:16;;;;;;;9.40;3.75;;;22.00;63.20;;;;;;10128897;29;20032;-52
2022/09/12 14:11:26;;;;;;;9.82;4.88;;;22.00;63.20;;;;;;10111586;29;20036;-50
2022/09/12 14:16:39;;;;;;;7.07;4.65;;;22.00;62.90;;;;;;10126307;29;20072;-52
2022/09/12 14:21:40;;;;;;;12.77;4.85;;;22.00;62.90;;;;;;10093505;29;20052;-52
2022/09/12 14:26:43;;;;;;;10.40;4.50;;;22.00;63.20;;;;;;10127381;29;20384;-52
2022/09/12 14:31:44;;;;;;;24.40;6.28;;;22.10;62.70;;;;;;10108328;29;20477;-53
2022/09/12 14:36:53;;;;;;;18.92;5.45;;;22.00;63.00;;;;;;10125629;29;20029;-53
2022/09/12 14:42:11;;;;;;;13.60;5.10;;;22.10;63.00;;;;;;10125688;29;20424;-52
2022/09/12 14:47:19;;;;;;;32.85;6.78;;;22.10;62.80;;;;;;10125696;29;20028;-52
2022/09/12 14:52:33;;;;;;;32.15;7.60;;;22.10;63.00;;;;;;10125281;29;20181;-53
2022/09/12 14:57:39;;;;;;;37.13;7.22;;;22.10;62.70;;;;;;10125858;29;20053;-53
2022/09/12 15:02:43;;;;;;;29.63;7.95;;;22.10;63.00;;;;;;10125744;29;20029;-53
2022/09/12 15:07:50;;;;;;;30.67;7.03;;;22.10;62.70;;;;;;10125120;29;20373;-53
2022/09/12 15:13:09;;;;;;;31.73;7.85;;;22.10;62.70;;;;;;10125826;29;20095;-52
2022/09/12 15:18:11;;;;;;;45.58;8.68;;;22.10;62.80;;;;;;10135902;29;20040;-51
2022/09/12 15:23:34;;;;;;;49.55;8.88;;;22.10;62.90;;;;;;10125319;29;20032;-52
2022/09/12 15:28:35;;;;;;;81.88;12.82;;;22.10;63.10;;;;;;10123242;29;20043;-54
2022/09/12 15:33:35;;;;;;;61.00;10.10;;;22.10;63.90;;;;;;10124976;29;20115;-53
2022/09/12 15:38:36;;;;;;;64.10;12.93;;;22.10;64.00;;;;;;10124296;29;20040;-54
2022/09/12 15:43:37;;;;;;;52.50;8.07;;;22.10;63.60;;;;;;10123947;29;20112;-54
2022/09/12 15:48:38;;;;;;;55.92;9.48;;;22.10;63.70;;;;;;10124589;29;20111;-55
2022/09/12 15:53:39;;;;;;;37.25;7.22;;;22.10;63.60;;;;;;10124000;29;20050;-53
2022/09/12 15:58:39;;;;;;;30.58;7.95;;;22.10;63.30;;;;;;10109271;29;20059;-54
2022/09/12 16:03:40;;;;;;;23.70;7.80;;;22.30;64.40;;;;;;10135847;29;20165;-56
2022/09/12 16:08:41;;;;;;;18.40;6.13;;;22.60;65.50;;;;;;10121321;29;20040;-54
2022/09/12 16:13:42;;;;;;;18.65;6.78;;;22.60;64.80;;;;;;10125306;29;20040;-55
2022/09/12 16:18:42;;;;;;;21.42;7.97;;;22.60;65.60;;;;;;10140807;29;20142;-55
2022/09/12 16:23:46;;;;;;;16.17;5.43;;;22.50;65.20;;;;;;10132006;29;20041;-55
2022/09/12 16:28:47;;;;;;;10.25;5.38;;;22.50;65.60;;;;;;10125664;29;20029;-53
2022/09/12 16:33:48;;;;;;;9.70;5.20;;;22.40;65.20;;;;;;10108822;29;20687;-55
2022/09/12 16:38:51;;;;;;;9.07;4.90;;;22.50;65.20;;;;;;10136628;29;20440;-55
2022/09/12 16:43:53;;;;;;;20.85;6.03;;;22.40;65.20;;;;;;10104279;29;20033;-53
2022/09/12 16:48:56;;;;;;;21.45;5.55;;;22.50;64.20;;;;;;10125133;29;20079;-54
2022/09/12 16:53:57;;;;;;;9.45;4.18;;;22.50;64.40;;;;;;10125629;29;20626;-53
2022/09/12 16:58:58;;;;;;;19.88;5.80;;;22.60;64.00;;;;;;10122736;29;20043;-52
2022/09/12 17:03:59;;;;;;;16.20;4.88;;;22.40;64.60;;;;;;10122741;29;20478;-51
2022/09/12 17:09:02;;;;;;;26.13;5.35;;;22.20;64.50;;;;;;10103796;29;20036;-51
2022/09/12 17:14:05;;;;;;;9.88;4.03;;;22.30;65.30;;;;;;10109486;29;20087;-50
2022/09/12 17:19:10;;;;;;;9.70;4.10;;;22.30;65.40;;;;;;10109547;29;20036;-53
2022/09/12 17:24:11;;;;;;;12.70;5.55;;;22.20;64.80;;;;;;10121308;29;20044;-49
2022/09/12 17:29:13;;;;;;;15.70;4.72;;;22.20;64.50;;;;;;10120966;29;20116;-51
2022/09/12 17:34:15;;;;;;;17.75;6.40;;;22.20;64.80;;;;;;10118938;29;20056;-50
2022/09/12 17:39:15;;;;;;;12.23;4.63;;;22.20;65.10;;;;;;10122886;29;20040;-47
2022/09/12 17:44:18;;;;;;;8.43;5.35;;;22.20;65.20;;;;;;10126055;29;20041;-51
2022/09/12 17:49:20;;;;;;;9.95;4.72;;;22.20;65.00;;;;;;10110237;29;20495;-49
2022/09/12 17:54:21;;;;;;;7.63;4.43;;;22.10;65.00;;;;;;10126783;29;20083;-50
2022/09/12 17:59:23;;;;;;;4.75;3.97;;;22.10;65.00;;;;;;10126286;29;20119;-50
2022/09/12 18:04:26;;;;;;;4.60;3.80;;;22.10;65.30;;;;;;10128751;29;20115;-49
2022/09/12 18:09:27;;;;;;;5.97;4.50;;;22.10;65.50;;;;;;10128348;29;20543;-52
2022/09/12 18:14:28;;;;;;;4.25;3.67;;;22.10;65.70;;;;;;10140639;29;20139;-51
2022/09/12 18:19:29;;;;;;;5.03;4.00;;;22.10;65.60;;;;;;10129037;29;20100;-49
2022/09/12 18:24:30;;;;;;;3.95;3.55;;;22.10;65.60;;;;;;10127049;29;20504;-47
2022/09/12 18:29:31;;;;;;;5.25;4.22;;;22.10;66.20;;;;;;10127784;29;20033;-48
2022/09/12 18:34:32;;;;;;;5.20;3.58;;;22.00;65.60;;;;;;10110421;29;20068;-47
2022/09/12 18:39:32;;;;;;;5.50;3.80;;;22.00;65.50;;;;;;10128152;29;20108;-47
2022/09/12 18:44:33;;;;;;;4.53;3.50;;;22.00;65.50;;;;;;10127217;29;20498;-47
2022/09/12 18:49:34;;;;;;;3.83;3.20;;;22.00;65.40;;;;;;10126801;29;20036;-48
2022/09/12 18:54:36;;;;;;;5.30;4.00;;;22.00;65.40;;;;;;10110104;29;20491;-48
2022/09/12 18:59:36;;;;;;;4.72;3.80;;;22.00;65.30;;;;;;10127017;29;20098;-51
2022/09/12 19:04:37;;;;;;;4.28;3.72;;;22.00;65.30;;;;;;10109917;29;20043;-48
2022/09/12 19:09:38;;;;;;;6.35;4.13;;;22.10;65.30;;;;;;10109798;29;20127;-49
2022/09/12 19:14:38;;;;;;;6.22;3.85;;;22.10;65.30;;;;;;10126625;29;20045;-50
2022/09/12 19:19:39;;;;;;;5.95;3.75;;;22.10;65.30;;;;;;10128081;29;20032;-49
2022/09/12 19:24:40;;;;;;;5.15;4.35;;;22.10;65.30;;;;;;10126005;29;20683;-48
2022/09/12 19:29:40;;;;;;;6.13;3.60;;;22.10;65.30;;;;;;10108894;29;20127;-51
2022/09/12 19:34:41;;;;;;;3.97;3.40;;;22.10;65.30;;;;;;10125835;29;20096;-47
2022/09/12 19:39:44;;;;;;;4.28;3.85;;;22.10;65.30;;;;;;10125539;29;20108;-48
2022/09/12 19:44:44;;;;;;;4.30;3.90;;;22.10;65.30;;;;;;10108786;29;20031;-48
2022/09/12 19:49:45;;;;;;;4.25;3.58;;;22.10;65.30;;;;;;10125616;29;20029;-47
2022/09/12 19:54:46;;;;;;;4.07;3.15;;;22.10;65.20;;;;;;10124348;29;20131;-49
2022/09/12 19:59:46;;;;;;;4.68;3.05;;;22.10;65.20;;;;;;10122672;29;20115;-49
2022/09/12 20:04:47;;;;;;;3.83;3.38;;;22.10;65.10;;;;;;10107822;29;20440;-50
2022/09/12 20:09:48;;;;;;;3.83;3.42;;;22.10;65.10;;;;;;10119443;29;20071;-49
2022/09/12 20:14:49;;;;;;;3.75;3.00;;;22.10;65.20;;;;;;10123142;29;20592;-47
2022/09/12 20:19:50;;;;;;;2.95;2.47;;;22.10;65.10;;;;;;10124487;29;20184;-51
2022/09/12 20:24:50;;;;;;;3.38;2.78;;;22.10;65.00;;;;;;10123705;29;20033;-52
2022/09/12 20:29:52;;;;;;;3.53;3.22;;;22.10;65.00;;;;;;10106495;29;20043;-48
2022/09/12 20:34:54;;;;;;;3.47;2.90;;;22.10;65.10;;;;;;10124206;29;20048;-48
2022/09/12 20:39:54;;;;;;;4.10;2.78;;;22.10;65.00;;;;;;10124131;29;20033;-50
2022/09/12 20:44:55;;;;;;;4.55;3.15;;;22.10;64.90;;;;;;10125838;29;20124;-51
2022/09/12 20:49:56;;;;;;;3.33;2.70;;;22.10;65.00;;;;;;10128683;29;20075;-49
2022/09/12 20:54:56;;;;;;;4.32;3.63;;;22.10;65.00;;;;;;10133004;29;20092;-49
2022/09/12 20:59:57;;;;;;;3.60;2.95;;;22.10;64.90;;;;;;10124976;29;20455;-50
2022/09/12 21:04:58;;;;;;;3.63;2.97;;;22.10;65.40;;;;;;10127024;29;20134;-49
2022/09/12 21:09:59;;;;;;;3.22;2.92;;;22.10;65.50;;;;;;10125124;29;20132;-50
2022/09/12 21:14:59;;;;;;;3.95;3.50;;;22.10;64.80;;;;;;10127927;29;20469;-52
2022/09/12 21:20:00;;;;;;;4.47;3.33;;;22.10;64.80;;;;;;10120233;29;20032;-51
2022/09/12 21:25:01;;;;;;;3.70;2.67;;;22.10;64.90;;;;;;10132581;29;20032;-50
2022/09/12 21:30:04;;;;;;;3.70;3.30;;;22.10;64.90;;;;;;10131820;29;20044;-51
2022/09/12 21:35:05;;;;;;;3.15;2.72;;;22.10;64.80;;;;;;10115163;29;20436;-50
2022/09/12 21:40:06;;;;;;;4.32;3.60;;;22.10;64.90;;;;;;10131774;29;20041;-51
2022/09/12 21:45:07;;;;;;;3.45;3.03;;;22.00;64.80;;;;;;10135208;29;20029;-50
2022/09/12 21:50:09;;;;;;;4.43;3.80;;;22.00;64.70;;;;;;10131114;29;20080;-50
2022/09/12 21:55:11;;;;;;;4.00;3.38;;;22.10;64.70;;;;;;10114479;29;20048;-48
2022/09/12 22:00:15;;;;;;;3.78;3.25;;;22.00;64.80;;;;;;10114107;29;20064;-51
2022/09/12 22:05:16;;;;;;;3.50;2.70;;;22.10;64.80;;;;;;10131072;29;20041;-47
2022/09/12 22:10:17;;;;;;;4.47;3.85;;;22.00;64.80;;;;;;10130298;29;20059;-51
2022/09/12 22:15:18;;;;;;;3.25;2.95;;;22.00;64.70;;;;;;10130506;29;20068;-49
2022/09/12 22:20:18;;;;;;;3.78;3.38;;;22.00;64.70;;;;;;10130071;29;20085;-50
2022/09/12 22:25:23;;;;;;;3.70;3.22;;;22.00;64.80;;;;;;10130219;29;20100;-49
2022/09/12 22:30:26;;;;;;;4.40;3.78;;;22.00;64.80;;;;;;10130508;29;20689;-48
2022/09/12 22:35:26;;;;;;;5.22;3.75;;;22.00;64.80;;;;;;10130053;29;20581;-50
2022/09/12 22:40:27;;;;;;;3.85;3.45;;;22.00;64.80;;;;;;10129714;29;20190;-51
2022/09/12 22:45:28;;;;;;;4.07;3.67;;;22.00;64.80;;;;;;10129832;29;20116;-50
2022/09/12 22:50:28;;;;;;;4.10;3.50;;;22.00;64.70;;;;;;10129111;29;20459;-51
2022/09/12 22:55:29;;;;;;;3.85;3.35;;;22.00;64.70;;;;;;10129260;29;20135;-50
2022/09/12 23:00:30;;;;;;;4.70;3.75;;;22.00;64.80;;;;;;10128867;29;20036;-49
2022/09/12 23:05:30;;;;;;;4.25;3.30;;;22.00;64.80;;;;;;10128656;29;20037;-48
2022/09/12 23:10:35;;;;;;;3.55;3.03;;;22.00;64.80;;;;;;10111885;29;20112;-50
2022/09/12 23:15:35;;;;;;;4.80;4.05;;;22.00;64.80;;;;;;10128343;29;20679;-48
2022/09/12 23:20:36;;;;;;;4.97;3.55;;;22.00;64.80;;;;;;10128115;29;20029;-48
2022/09/12 23:25:37;;;;;;;4.25;3.75;;;22.00;64.90;;;;;;10128392;29;20028;-49
2022/09/12 23:30:38;;;;;;;4.25;3.83;;;22.00;64.90;;;;;;10127437;29;20124;-50
2022/09/12 23:35:39;;;;;;;4.30;3.28;;;22.00;64.90;;;;;;10127798;29;20385;-49
2022/09/12 23:40:39;;;;;;;4.05;3.47;;;22.00;65.00;;;;;;10126949;29;20060;-49
2022/09/12 23:45:40;;;;;;;3.67;3.30;;;22.00;64.90;;;;;;10127353;29;20469;-48
2022/09/12 23:50:46;;;;;;;4.05;3.65;;;22.00;64.90;;;;;;10110680;29;20133;-49
2022/09/12 23:55:47;;;;;;;3.53;3.22;;;22.00;64.90;;;;;;10127014;29;20048;-51
